ZBTJ/TSN METAR and TAF weather

Enter ICAO airport designator
Station Type Date Time Source
ZBTJ METAR 2019/08/25 02:30 UTC NOAA

ZBTJ 250230Z 21002MPS 140V260 CAVOK 30/16 Q1013 NOSIG


Station Type Date Time Source
ZBTJ Decoded METAR 2019/08/25 02:30 UTC NOAA

Station name not available
Aug 24, 2019 - 10:30 PM EDT / 2019.08.25 0230 UTC
Wind: from the SSW (210 degrees) at 4 MPH (4 KT) (direction variable):0
Visibility: greater than 7 mile(s):0
Temperature: 86 F (30 C)
Dew Point: 60 F (16 C)
Relative Humidity: 42%
Pressure (altimeter): 29.91 in. Hg (1013 hPa)
ob: ZBTJ 250230Z 21002MPS 140V260 CAVOK 30/16 Q1013 NOSIG
cycle: 2

Station Type Date Time Source
ZBTJ TAF 2019/08/24 18:03 UTC NOAA

TAF ZBTJ 241500Z 2418/2518 25003MPS 5000 BR NSC TX32/2507Z TN21/2421Z

Example: see airport list